sensor_id;sensor_type;location;lat;lon;timestamp;P1;durP1;ratioP1;P2;durP2;ratioP2
10154;SDS011;5118;48.570;7.916;2022-12-07T00:02:03;24.63;;;19.37;;
10154;SDS011;5118;48.570;7.916;2022-12-07T00:04:32;25.37;;;20.13;;
10154;SDS011;5118;48.570;7.916;2022-12-07T00:07:00;24.83;;;19.13;;
10154;SDS011;5118;48.570;7.916;2022-12-07T00:09:29;24.80;;;19.23;;
10154;SDS011;5118;48.570;7.916;2022-12-07T00:11:57;24.67;;;19.40;;
10154;SDS011;5118;48.570;7.916;2022-12-07T00:14:26;23.40;;;18.50;;
10154;SDS011;5118;48.570;7.916;2022-12-07T00:16:56;23.97;;;18.90;;
10154;SDS011;5118;48.570;7.916;2022-12-07T00:19:24;24.87;;;19.13;;
10154;SDS011;5118;48.570;7.916;2022-12-07T00:21:52;24.80;;;19.40;;
10154;SDS011;5118;48.570;7.916;2022-12-07T00:24:21;24.57;;;19.50;;
10154;SDS011;5118;48.570;7.916;2022-12-07T00:26:49;23.43;;;18.30;;
10154;SDS011;5118;48.570;7.916;2022-12-07T00:29:18;23.77;;;18.53;;
10154;SDS011;5118;48.570;7.916;2022-12-07T00:31:49;24.27;;;17.97;;
10154;SDS011;5118;48.570;7.916;2022-12-07T00:34:20;25.83;;;18.03;;
10154;SDS011;5118;48.570;7.916;2022-12-07T00:36:49;22.37;;;17.80;;
10154;SDS011;5118;48.570;7.916;2022-12-07T00:39:17;22.90;;;17.87;;
10154;SDS011;5118;48.570;7.916;2022-12-07T00:41:46;23.03;;;17.63;;
10154;SDS011;5118;48.570;7.916;2022-12-07T00:44:15;23.63;;;17.70;;
10154;SDS011;5118;48.570;7.916;2022-12-07T00:46:43;23.53;;;18.13;;
10154;SDS011;5118;48.570;7.916;2022-12-07T00:49:12;21.60;;;18.00;;
10154;SDS011;5118;48.570;7.916;2022-12-07T00:51:42;20.93;;;17.10;;
10154;SDS011;5118;48.570;7.916;2022-12-07T00:54:11;22.47;;;17.90;;
10154;SDS011;5118;48.570;7.916;2022-12-07T00:56:39;23.43;;;17.97;;
10154;SDS011;5118;48.570;7.916;2022-12-07T00:59:10;23.33;;;18.23;;
10154;SDS011;5118;48.570;7.916;2022-12-07T01:01:40;22.20;;;17.93;;
10154;SDS011;5118;48.570;7.916;2022-12-07T01:04:08;24.77;;;18.53;;
10154;SDS011;5118;48.570;7.916;2022-12-07T01:06:37;24.10;;;18.70;;
10154;SDS011;5118;48.570;7.916;2022-12-07T01:09:09;22.37;;;16.90;;
10154;SDS011;5118;48.570;7.916;2022-12-07T01:11:38;25.40;;;18.90;;
10154;SDS011;5118;48.570;7.916;2022-12-07T01:14:06;24.87;;;18.47;;
10154;SDS011;5118;48.570;7.916;2022-12-07T01:16:36;24.67;;;18.87;;
10154;SDS011;5118;48.570;7.916;2022-12-07T01:19:06;23.67;;;18.93;;
10154;SDS011;5118;48.570;7.916;2022-12-07T01:21:35;28.53;;;21.07;;
10154;SDS011;5118;48.570;7.916;2022-12-07T01:24:04;25.33;;;19.70;;
10154;SDS011;5118;48.570;7.916;2022-12-07T01:26:39;24.03;;;19.13;;
10154;SDS011;5118;48.570;7.916;2022-12-07T01:29:07;26.27;;;19.43;;
10154;SDS011;5118;48.570;7.916;2022-12-07T01:31:36;25.37;;;20.50;;
10154;SDS011;5118;48.570;7.916;2022-12-07T01:34:04;25.83;;;20.40;;
10154;SDS011;5118;48.570;7.916;2022-12-07T01:36:34;28.10;;;21.40;;
10154;SDS011;5118;48.570;7.916;2022-12-07T01:39:04;28.20;;;21.73;;
10154;SDS011;5118;48.570;7.916;2022-12-07T01:41:35;28.47;;;22.27;;
10154;SDS011;5118;48.570;7.916;2022-12-07T01:44:09;28.60;;;22.50;;
10154;SDS011;5118;48.570;7.916;2022-12-07T01:46:43;30.87;;;23.73;;
10154;SDS011;5118;48.570;7.916;2022-12-07T01:49:14;33.03;;;24.80;;
10154;SDS011;5118;48.570;7.916;2022-12-07T01:51:46;36.13;;;26.50;;
10154;SDS011;5118;48.570;7.916;2022-12-07T01:54:16;34.77;;;26.73;;
10154;SDS011;5118;48.570;7.916;2022-12-07T01:56:47;37.63;;;29.20;;
10154;SDS011;5118;48.570;7.916;2022-12-07T01:59:21;37.43;;;28.50;;
10154;SDS011;5118;48.570;7.916;2022-12-07T02:01:52;39.60;;;29.23;;
10154;SDS011;5118;48.570;7.916;2022-12-07T02:04:22;38.40;;;28.70;;
10154;SDS011;5118;48.570;7.916;2022-12-07T02:06:51;39.00;;;28.43;;
10154;SDS011;5118;48.570;7.916;2022-12-07T02:09:20;38.53;;;29.23;;
10154;SDS011;5118;48.570;7.916;2022-12-07T02:11:48;38.13;;;28.33;;
10154;SDS011;5118;48.570;7.916;2022-12-07T02:14:17;40.57;;;28.17;;
10154;SDS011;5118;48.570;7.916;2022-12-07T02:16:49;39.43;;;27.53;;
10154;SDS011;5118;48.570;7.916;2022-12-07T02:19:38;35.80;;;26.50;;
10154;SDS011;5118;48.570;7.916;2022-12-07T02:22:48;32.73;;;24.37;;
10154;SDS011;5118;48.570;7.916;2022-12-07T02:25:31;32.83;;;25.27;;
10154;SDS011;5118;48.570;7.916;2022-12-07T02:28:09;35.57;;;25.93;;
10154;SDS011;5118;48.570;7.916;2022-12-07T02:30:48;36.10;;;26.23;;
10154;SDS011;5118;48.570;7.916;2022-12-07T02:33:18;40.53;;;27.40;;
10154;SDS011;5118;48.570;7.916;2022-12-07T02:35:54;39.90;;;28.03;;
10154;SDS011;5118;48.570;7.916;2022-12-07T02:38:28;39.33;;;28.77;;
10154;SDS011;5118;48.570;7.916;2022-12-07T02:41:04;38.80;;;27.60;;
10154;SDS011;5118;48.570;7.916;2022-12-07T02:43:38;40.53;;;28.80;;
10154;SDS011;5118;48.570;7.916;2022-12-07T02:46:11;38.73;;;28.30;;
10154;SDS011;5118;48.570;7.916;2022-12-07T02:48:42;40.00;;;27.20;;
10154;SDS011;5118;48.570;7.916;2022-12-07T02:51:11;37.40;;;26.87;;
10154;SDS011;5118;48.570;7.916;2022-12-07T02:53:40;39.70;;;27.37;;
10154;SDS011;5118;48.570;7.916;2022-12-07T02:56:11;39.80;;;28.03;;
10154;SDS011;5118;48.570;7.916;2022-12-07T02:58:58;42.30;;;28.73;;
10154;SDS011;5118;48.570;7.916;2022-12-07T03:01:41;42.57;;;29.40;;
10154;SDS011;5118;48.570;7.916;2022-12-07T03:04:22;43.27;;;28.83;;
10154;SDS011;5118;48.570;7.916;2022-12-07T03:07:01;47.27;;;29.90;;
10154;SDS011;5118;48.570;7.916;2022-12-07T03:09:37;45.60;;;28.57;;
10154;SDS011;5118;48.570;7.916;2022-12-07T03:12:14;50.50;;;29.93;;
10154;SDS011;5118;48.570;7.916;2022-12-07T03:14:48;48.30;;;30.07;;
10154;SDS011;5118;48.570;7.916;2022-12-07T03:17:26;53.17;;;31.10;;
10154;SDS011;5118;48.570;7.916;2022-12-07T03:19:59;58.27;;;30.83;;
10154;SDS011;5118;48.570;7.916;2022-12-07T03:22:31;56.97;;;30.00;;
10154;SDS011;5118;48.570;7.916;2022-12-07T03:25:04;55.30;;;30.97;;
10154;SDS011;5118;48.570;7.916;2022-12-07T03:27:35;61.10;;;31.10;;
10154;SDS011;5118;48.570;7.916;2022-12-07T03:30:08;62.57;;;32.33;;
10154;SDS011;5118;48.570;7.916;2022-12-07T03:32:43;64.20;;;32.90;;
10154;SDS011;5118;48.570;7.916;2022-12-07T03:35:16;62.77;;;32.53;;
10154;SDS011;5118;48.570;7.916;2022-12-07T03:37:50;65.87;;;33.40;;
10154;SDS011;5118;48.570;7.916;2022-12-07T03:40:23;64.03;;;33.47;;
10154;SDS011;5118;48.570;7.916;2022-12-07T03:42:57;62.80;;;33.33;;
10154;SDS011;5118;48.570;7.916;2022-12-07T03:45:31;69.60;;;33.30;;
10154;SDS011;5118;48.570;7.916;2022-12-07T03:48:07;72.73;;;34.73;;
10154;SDS011;5118;48.570;7.916;2022-12-07T03:50:41;68.13;;;33.37;;
10154;SDS011;5118;48.570;7.916;2022-12-07T03:53:17;61.93;;;32.70;;
10154;SDS011;5118;48.570;7.916;2022-12-07T03:55:49;63.77;;;33.53;;
10154;SDS011;5118;48.570;7.916;2022-12-07T03:58:19;55.53;;;31.73;;
10154;SDS011;5118;48.570;7.916;2022-12-07T04:00:49;55.50;;;31.43;;
10154;SDS011;5118;48.570;7.916;2022-12-07T04:03:20;53.87;;;30.10;;
10154;SDS011;5118;48.570;7.916;2022-12-07T04:05:49;53.40;;;32.73;;
10154;SDS011;5118;48.570;7.916;2022-12-07T04:08:17;62.00;;;35.80;;
10154;SDS011;5118;48.570;7.916;2022-12-07T04:10:45;56.93;;;34.60;;
10154;SDS011;5118;48.570;7.916;2022-12-07T04:13:14;53.87;;;33.17;;
10154;SDS011;5118;48.570;7.916;2022-12-07T04:15:42;53.90;;;33.37;;
10154;SDS011;5118;48.570;7.916;2022-12-07T04:18:11;45.10;;;28.73;;
10154;SDS011;5118;48.570;7.916;2022-12-07T04:20:41;43.53;;;27.20;;
10154;SDS011;5118;48.570;7.916;2022-12-07T04:23:09;44.90;;;26.50;;
10154;SDS011;5118;48.570;7.916;2022-12-07T04:25:37;44.57;;;26.80;;
10154;SDS011;5118;48.570;7.916;2022-12-07T04:28:05;45.27;;;27.40;;
10154;SDS011;5118;48.570;7.916;2022-12-07T04:30:34;46.43;;;27.63;;
10154;SDS011;5118;48.570;7.916;2022-12-07T04:33:02;45.40;;;27.50;;
10154;SDS011;5118;48.570;7.916;2022-12-07T04:35:30;41.67;;;26.47;;
10154;SDS011;5118;48.570;7.916;2022-12-07T04:38:00;43.67;;;26.70;;
10154;SDS011;5118;48.570;7.916;2022-12-07T04:40:28;45.67;;;25.27;;
10154;SDS011;5118;48.570;7.916;2022-12-07T04:42:56;46.97;;;28.63;;
10154;SDS011;5118;48.570;7.916;2022-12-07T04:45:25;43.27;;;27.53;;
10154;SDS011;5118;48.570;7.916;2022-12-07T04:47:53;43.33;;;27.90;;
10154;SDS011;5118;48.570;7.916;2022-12-07T04:50:22;43.00;;;27.17;;
10154;SDS011;5118;48.570;7.916;2022-12-07T04:52:50;48.13;;;26.70;;
10154;SDS011;5118;48.570;7.916;2022-12-07T04:55:20;43.67;;;26.33;;
10154;SDS011;5118;48.570;7.916;2022-12-07T04:57:48;49.93;;;30.13;;
10154;SDS011;5118;48.570;7.916;2022-12-07T05:00:17;48.17;;;29.23;;
10154;SDS011;5118;48.570;7.916;2022-12-07T05:02:45;53.03;;;30.17;;
10154;SDS011;5118;48.570;7.916;2022-12-07T05:05:14;49.50;;;29.83;;
10154;SDS011;5118;48.570;7.916;2022-12-07T05:07:42;57.00;;;32.13;;
10154;SDS011;5118;48.570;7.916;2022-12-07T05:10:11;52.60;;;29.43;;
10154;SDS011;5118;48.570;7.916;2022-12-07T05:12:40;52.37;;;29.17;;
10154;SDS011;5118;48.570;7.916;2022-12-07T05:15:09;54.50;;;30.70;;
10154;SDS011;5118;48.570;7.916;2022-12-07T05:17:37;48.03;;;29.17;;
10154;SDS011;5118;48.570;7.916;2022-12-07T05:20:06;50.57;;;30.10;;
10154;SDS011;5118;48.570;7.916;2022-12-07T05:22:35;56.20;;;31.43;;
10154;SDS011;5118;48.570;7.916;2022-12-07T05:25:04;49.93;;;31.03;;
10154;SDS011;5118;48.570;7.916;2022-12-07T05:27:32;51.07;;;31.90;;
10154;SDS011;5118;48.570;7.916;2022-12-07T05:30:02;46.83;;;29.27;;
10154;SDS011;5118;48.570;7.916;2022-12-07T05:32:31;54.30;;;31.23;;
10154;SDS011;5118;48.570;7.916;2022-12-07T05:34:59;46.60;;;27.27;;
10154;SDS011;5118;48.570;7.916;2022-12-07T05:37:27;51.30;;;29.50;;
10154;SDS011;5118;48.570;7.916;2022-12-07T05:39:56;50.23;;;28.80;;
10154;SDS011;5118;48.570;7.916;2022-12-07T05:42:24;45.33;;;27.27;;
10154;SDS011;5118;48.570;7.916;2022-12-07T05:44:52;51.23;;;33.07;;
10154;SDS011;5118;48.570;7.916;2022-12-07T05:47:22;50.70;;;32.17;;
10154;SDS011;5118;48.570;7.916;2022-12-07T05:49:51;49.57;;;28.50;;
10154;SDS011;5118;48.570;7.916;2022-12-07T05:52:19;48.27;;;27.97;;
10154;SDS011;5118;48.570;7.916;2022-12-07T05:54:47;46.10;;;27.93;;
10154;SDS011;5118;48.570;7.916;2022-12-07T05:57:16;40.87;;;24.73;;
10154;SDS011;5118;48.570;7.916;2022-12-07T05:59:44;39.07;;;25.07;;
10154;SDS011;5118;48.570;7.916;2022-12-07T06:02:12;44.67;;;25.90;;
10154;SDS011;5118;48.570;7.916;2022-12-07T06:04:44;45.17;;;30.87;;
10154;SDS011;5118;48.570;7.916;2022-12-07T06:07:14;49.60;;;33.77;;
10154;SDS011;5118;48.570;7.916;2022-12-07T06:09:43;44.07;;;27.17;;
10154;SDS011;5118;48.570;7.916;2022-12-07T06:12:12;42.00;;;25.83;;
10154;SDS011;5118;48.570;7.916;2022-12-07T06:14:58;46.53;;;28.03;;
10154;SDS011;5118;48.570;7.916;2022-12-07T06:17:27;52.07;;;32.43;;
10154;SDS011;5118;48.570;7.916;2022-12-07T06:19:56;44.47;;;27.87;;
10154;SDS011;5118;48.570;7.916;2022-12-07T06:22:26;44.80;;;27.10;;
10154;SDS011;5118;48.570;7.916;2022-12-07T06:24:54;39.07;;;25.30;;
10154;SDS011;5118;48.570;7.916;2022-12-07T06:27:23;43.97;;;27.77;;
10154;SDS011;5118;48.570;7.916;2022-12-07T06:29:51;43.93;;;27.80;;
10154;SDS011;5118;48.570;7.916;2022-12-07T06:32:19;40.83;;;25.20;;
10154;SDS011;5118;48.570;7.916;2022-12-07T06:34:47;37.63;;;24.13;;
10154;SDS011;5118;48.570;7.916;2022-12-07T06:37:17;39.87;;;23.50;;
10154;SDS011;5118;48.570;7.916;2022-12-07T06:39:47;42.37;;;26.80;;
10154;SDS011;5118;48.570;7.916;2022-12-07T06:42:15;49.97;;;32.80;;
10154;SDS011;5118;48.570;7.916;2022-12-07T06:44:43;48.80;;;32.93;;
10154;SDS011;5118;48.570;7.916;2022-12-07T06:47:12;48.77;;;31.80;;
10154;SDS011;5118;48.570;7.916;2022-12-07T06:50:00;38.63;;;25.90;;
10154;SDS011;5118;48.570;7.916;2022-12-07T06:52:31;43.13;;;26.90;;
10154;SDS011;5118;48.570;7.916;2022-12-07T06:55:00;36.60;;;23.60;;
10154;SDS011;5118;48.570;7.916;2022-12-07T06:57:28;43.30;;;30.20;;
10154;SDS011;5118;48.570;7.916;2022-12-07T06:59:56;42.77;;;28.63;;
10154;SDS011;5118;48.570;7.916;2022-12-07T07:02:25;38.33;;;27.53;;
10154;SDS011;5118;48.570;7.916;2022-12-07T07:04:54;34.20;;;24.60;;
10154;SDS011;5118;48.570;7.916;2022-12-07T07:07:22;34.90;;;26.33;;
10154;SDS011;5118;48.570;7.916;2022-12-07T07:09:52;34.77;;;23.90;;
10154;SDS011;5118;48.570;7.916;2022-12-07T07:12:20;34.20;;;21.83;;
10154;SDS011;5118;48.570;7.916;2022-12-07T07:14:49;33.87;;;22.27;;
10154;SDS011;5118;48.570;7.916;2022-12-07T07:17:17;29.00;;;19.87;;
10154;SDS011;5118;48.570;7.916;2022-12-07T07:19:46;28.90;;;20.67;;
10154;SDS011;5118;48.570;7.916;2022-12-07T07:22:15;31.50;;;21.93;;
10154;SDS011;5118;48.570;7.916;2022-12-07T07:24:44;31.67;;;21.03;;
10154;SDS011;5118;48.570;7.916;2022-12-07T07:27:14;29.50;;;20.90;;
10154;SDS011;5118;48.570;7.916;2022-12-07T07:29:44;31.23;;;20.70;;
10154;SDS011;5118;48.570;7.916;2022-12-07T07:32:13;30.37;;;20.40;;
10154;SDS011;5118;48.570;7.916;2022-12-07T07:34:42;32.63;;;21.70;;
10154;SDS011;5118;48.570;7.916;2022-12-07T07:37:10;31.97;;;21.27;;
10154;SDS011;5118;48.570;7.916;2022-12-07T07:39:47;31.40;;;20.43;;
10154;SDS011;5118;48.570;7.916;2022-12-07T07:42:17;27.87;;;20.43;;
10154;SDS011;5118;48.570;7.916;2022-12-07T07:44:45;28.13;;;21.00;;
10154;SDS011;5118;48.570;7.916;2022-12-07T07:47:13;31.97;;;21.70;;
10154;SDS011;5118;48.570;7.916;2022-12-07T07:49:42;26.77;;;21.50;;
10154;SDS011;5118;48.570;7.916;2022-12-07T07:52:13;35.80;;;26.17;;
10154;SDS011;5118;48.570;7.916;2022-12-07T07:54:42;31.37;;;24.80;;
10154;SDS011;5118;48.570;7.916;2022-12-07T07:57:10;28.90;;;23.53;;
10154;SDS011;5118;48.570;7.916;2022-12-07T07:59:40;25.70;;;18.93;;
10154;SDS011;5118;48.570;7.916;2022-12-07T08:02:09;22.00;;;17.33;;
10154;SDS011;5118;48.570;7.916;2022-12-07T08:04:41;24.13;;;16.87;;
10154;SDS011;5118;48.570;7.916;2022-12-07T08:07:09;23.57;;;17.47;;
10154;SDS011;5118;48.570;7.916;2022-12-07T08:09:38;25.53;;;17.87;;
10154;SDS011;5118;48.570;7.916;2022-12-07T08:12:06;26.43;;;18.23;;
10154;SDS011;5118;48.570;7.916;2022-12-07T08:14:35;30.03;;;20.80;;
10154;SDS011;5118;48.570;7.916;2022-12-07T08:17:05;31.13;;;25.80;;
10154;SDS011;5118;48.570;7.916;2022-12-07T08:19:33;29.33;;;21.20;;
10154;SDS011;5118;48.570;7.916;2022-12-07T08:22:03;26.43;;;19.30;;
10154;SDS011;5118;48.570;7.916;2022-12-07T08:24:32;23.73;;;17.77;;
10154;SDS011;5118;48.570;7.916;2022-12-07T08:27:01;23.23;;;17.83;;
10154;SDS011;5118;48.570;7.916;2022-12-07T08:29:30;20.30;;;16.63;;
10154;SDS011;5118;48.570;7.916;2022-12-07T08:31:58;22.80;;;16.67;;
10154;SDS011;5118;48.570;7.916;2022-12-07T08:34:36;20.47;;;15.20;;
10154;SDS011;5118;48.570;7.916;2022-12-07T08:37:04;20.50;;;15.93;;
10154;SDS011;5118;48.570;7.916;2022-12-07T08:39:33;19.73;;;16.17;;
10154;SDS011;5118;48.570;7.916;2022-12-07T08:42:01;21.77;;;15.77;;
10154;SDS011;5118;48.570;7.916;2022-12-07T08:44:30;19.87;;;15.37;;
10154;SDS011;5118;48.570;7.916;2022-12-07T08:46:58;18.53;;;14.90;;
10154;SDS011;5118;48.570;7.916;2022-12-07T08:49:32;28.23;;;22.13;;
10154;SDS011;5118;48.570;7.916;2022-12-07T08:52:05;18.97;;;15.10;;
10154;SDS011;5118;48.570;7.916;2022-12-07T08:54:34;20.37;;;15.83;;
10154;SDS011;5118;48.570;7.916;2022-12-07T08:57:04;22.30;;;16.23;;
10154;SDS011;5118;48.570;7.916;2022-12-07T08:59:34;20.93;;;16.37;;
10154;SDS011;5118;48.570;7.916;2022-12-07T09:02:19;19.90;;;15.67;;
10154;SDS011;5118;48.570;7.916;2022-12-07T09:04:49;23.03;;;16.57;;
10154;SDS011;5118;48.570;7.916;2022-12-07T09:07:19;21.47;;;15.93;;
10154;SDS011;5118;48.570;7.916;2022-12-07T09:09:48;19.20;;;15.83;;
10154;SDS011;5118;48.570;7.916;2022-12-07T09:12:16;23.00;;;16.87;;
10154;SDS011;5118;48.570;7.916;2022-12-07T09:14:45;20.53;;;16.27;;
10154;SDS011;5118;48.570;7.916;2022-12-07T09:17:13;20.23;;;16.67;;
10154;SDS011;5118;48.570;7.916;2022-12-07T09:19:41;18.93;;;15.53;;
10154;SDS011;5118;48.570;7.916;2022-12-07T09:22:10;21.03;;;16.70;;
10154;SDS011;5118;48.570;7.916;2022-12-07T09:24:40;20.10;;;15.80;;
10154;SDS011;5118;48.570;7.916;2022-12-07T09:27:09;19.00;;;15.17;;
10154;SDS011;5118;48.570;7.916;2022-12-07T09:29:38;19.97;;;15.90;;
10154;SDS011;5118;48.570;7.916;2022-12-07T09:32:06;23.13;;;18.20;;
10154;SDS011;5118;48.570;7.916;2022-12-07T09:34:37;20.80;;;16.30;;
10154;SDS011;5118;48.570;7.916;2022-12-07T09:37:07;20.83;;;16.10;;
10154;SDS011;5118;48.570;7.916;2022-12-07T09:39:38;18.60;;;14.63;;
10154;SDS011;5118;48.570;7.916;2022-12-07T09:42:21;21.37;;;15.47;;
10154;SDS011;5118;48.570;7.916;2022-12-07T09:44:57;19.80;;;14.60;;
10154;SDS011;5118;48.570;7.916;2022-12-07T09:47:26;20.03;;;15.13;;
10154;SDS011;5118;48.570;7.916;2022-12-07T09:49:58;21.40;;;16.97;;
10154;SDS011;5118;48.570;7.916;2022-12-07T09:52:32;22.93;;;16.97;;
10154;SDS011;5118;48.570;7.916;2022-12-07T09:55:09;20.37;;;16.33;;
10154;SDS011;5118;48.570;7.916;2022-12-07T09:57:39;21.63;;;16.43;;
10154;SDS011;5118;48.570;7.916;2022-12-07T10:00:11;20.60;;;15.33;;
10154;SDS011;5118;48.570;7.916;2022-12-07T10:02:42;21.87;;;16.03;;
10154;SDS011;5118;48.570;7.916;2022-12-07T10:05:15;22.30;;;16.33;;
10154;SDS011;5118;48.570;7.916;2022-12-07T10:07:50;22.57;;;17.17;;
10154;SDS011;5118;48.570;7.916;2022-12-07T10:10:22;19.50;;;15.13;;
10154;SDS011;5118;48.570;7.916;2022-12-07T10:12:57;21.87;;;15.77;;
10154;SDS011;5118;48.570;7.916;2022-12-07T10:15:44;17.53;;;13.30;;
10154;SDS011;5118;48.570;7.916;2022-12-07T10:18:19;19.63;;;15.07;;
10154;SDS011;5118;48.570;7.916;2022-12-07T10:21:00;19.47;;;14.60;;
10154;SDS011;5118;48.570;7.916;2022-12-07T10:23:30;18.90;;;14.57;;
10154;SDS011;5118;48.570;7.916;2022-12-07T10:26:00;18.17;;;14.33;;
10154;SDS011;5118;48.570;7.916;2022-12-07T10:28:49;18.63;;;14.73;;
10154;SDS011;5118;48.570;7.916;2022-12-07T10:31:18;20.20;;;15.70;;
10154;SDS011;5118;48.570;7.916;2022-12-07T10:33:50;19.03;;;14.60;;
10154;SDS011;5118;48.570;7.916;2022-12-07T10:36:22;18.07;;;14.37;;
10154;SDS011;5118;48.570;7.916;2022-12-07T10:38:53;18.37;;;14.70;;
10154;SDS011;5118;48.570;7.916;2022-12-07T10:41:28;18.40;;;14.50;;
10154;SDS011;5118;48.570;7.916;2022-12-07T10:43:57;16.57;;;13.20;;
10154;SDS011;5118;48.570;7.916;2022-12-07T10:52:33;14.70;;;12.57;;
10154;SDS011;5118;48.570;7.916;2022-12-07T10:55:18;15.50;;;13.27;;
10154;SDS011;5118;48.570;7.916;2022-12-07T10:57:59;16.33;;;13.40;;
10154;SDS011;5118;48.570;7.916;2022-12-07T11:00:41;16.70;;;14.67;;
10154;SDS011;5118;48.570;7.916;2022-12-07T11:06:10;13.97;;;11.33;;
10154;SDS011;5118;48.570;7.916;2022-12-07T11:08:54;13.50;;;10.57;;
10154;SDS011;5118;48.570;7.916;2022-12-07T11:11:33;14.90;;;11.37;;
10154;SDS011;5118;48.570;7.916;2022-12-07T11:14:08;13.50;;;10.70;;
10154;SDS011;5118;48.570;7.916;2022-12-07T11:16:50;11.70;;;10.40;;
10154;SDS011;5118;48.570;7.916;2022-12-07T11:19:30;15.50;;;11.67;;
10154;SDS011;5118;48.570;7.916;2022-12-07T11:22:09;13.13;;;10.80;;
10154;SDS011;5118;48.570;7.916;2022-12-07T11:24:48;13.53;;;11.10;;
10154;SDS011;5118;48.570;7.916;2022-12-07T11:27:27;13.93;;;11.17;;
10154;SDS011;5118;48.570;7.916;2022-12-07T11:30:13;14.60;;;10.83;;
10154;SDS011;5118;48.570;7.916;2022-12-07T11:32:57;11.90;;;10.17;;
10154;SDS011;5118;48.570;7.916;2022-12-07T11:35:42;12.30;;;11.00;;
10154;SDS011;5118;48.570;7.916;2022-12-07T11:38:19;12.67;;;10.90;;
10154;SDS011;5118;48.570;7.916;2022-12-07T11:40:57;12.20;;;10.50;;
10154;SDS011;5118;48.570;7.916;2022-12-07T11:43:46;13.10;;;10.80;;
10154;SDS011;5118;48.570;7.916;2022-12-07T11:46:24;13.40;;;11.00;;
10154;SDS011;5118;48.570;7.916;2022-12-07T11:48:55;13.80;;;11.40;;
10154;SDS011;5118;48.570;7.916;2022-12-07T11:51:32;13.53;;;11.73;;
10154;SDS011;5118;48.570;7.916;2022-12-07T11:54:11;13.23;;;11.20;;
10154;SDS011;5118;48.570;7.916;2022-12-07T11:56:44;14.97;;;12.07;;
10154;SDS011;5118;48.570;7.916;2022-12-07T11:59:19;13.93;;;12.43;;
10154;SDS011;5118;48.570;7.916;2022-12-07T12:01:55;16.53;;;12.57;;
10154;SDS011;5118;48.570;7.916;2022-12-07T12:04:32;13.20;;;11.37;;
10154;SDS011;5118;48.570;7.916;2022-12-07T12:07:10;13.37;;;11.97;;
10154;SDS011;5118;48.570;7.916;2022-12-07T12:10:02;15.10;;;12.57;;
10154;SDS011;5118;48.570;7.916;2022-12-07T12:12:42;13.90;;;12.40;;
10154;SDS011;5118;48.570;7.916;2022-12-07T12:15:57;15.00;;;12.47;;
10154;SDS011;5118;48.570;7.916;2022-12-07T12:18:48;15.50;;;11.93;;
10154;SDS011;5118;48.570;7.916;2022-12-07T12:21:26;15.03;;;12.10;;
10154;SDS011;5118;48.570;7.916;2022-12-07T12:23:58;13.63;;;12.03;;
10154;SDS011;5118;48.570;7.916;2022-12-07T12:26:30;14.13;;;12.23;;
10154;SDS011;5118;48.570;7.916;2022-12-07T12:29:02;15.70;;;12.27;;
10154;SDS011;5118;48.570;7.916;2022-12-07T12:31:34;14.17;;;12.40;;
10154;SDS011;5118;48.570;7.916;2022-12-07T12:36:59;14.63;;;12.93;;
10154;SDS011;5118;48.570;7.916;2022-12-07T12:39:27;15.00;;;12.30;;
10154;SDS011;5118;48.570;7.916;2022-12-07T12:41:57;14.70;;;12.87;;
10154;SDS011;5118;48.570;7.916;2022-12-07T12:50:31;14.63;;;12.70;;
10154;SDS011;5118;48.570;7.916;2022-12-07T12:58:44;13.87;;;11.67;;
10154;SDS011;5118;48.570;7.916;2022-12-07T13:04:26;15.43;;;12.50;;
10154;SDS011;5118;48.570;7.916;2022-12-07T13:07:10;15.17;;;12.13;;
10154;SDS011;5118;48.570;7.916;2022-12-07T13:09:42;14.63;;;12.10;;
10154;SDS011;5118;48.570;7.916;2022-12-07T13:12:13;15.37;;;13.33;;
10154;SDS011;5118;48.570;7.916;2022-12-07T13:17:56;15.23;;;13.63;;
10154;SDS011;5118;48.570;7.916;2022-12-07T13:20:40;14.53;;;12.53;;
10154;SDS011;5118;48.570;7.916;2022-12-07T13:23:15;14.40;;;12.30;;
10154;SDS011;5118;48.570;7.916;2022-12-07T13:26:00;16.57;;;13.90;;
10154;SDS011;5118;48.570;7.916;2022-12-07T13:28:43;14.33;;;12.80;;
10154;SDS011;5118;48.570;7.916;2022-12-07T13:31:16;15.10;;;13.03;;
10154;SDS011;5118;48.570;7.916;2022-12-07T13:33:51;15.40;;;12.80;;
10154;SDS011;5118;48.570;7.916;2022-12-07T13:36:21;15.63;;;12.60;;
10154;SDS011;5118;48.570;7.916;2022-12-07T13:38:54;23.77;;;16.57;;
10154;SDS011;5118;48.570;7.916;2022-12-07T13:41:24;15.03;;;12.83;;
10154;SDS011;5118;48.570;7.916;2022-12-07T13:43:58;16.70;;;13.43;;
10154;SDS011;5118;48.570;7.916;2022-12-07T13:46:35;17.73;;;14.13;;
10154;SDS011;5118;48.570;7.916;2022-12-07T13:49:16;17.73;;;14.53;;
10154;SDS011;5118;48.570;7.916;2022-12-07T13:51:46;19.63;;;15.57;;
10154;SDS011;5118;48.570;7.916;2022-12-07T13:54:17;16.17;;;13.63;;
10154;SDS011;5118;48.570;7.916;2022-12-07T13:56:47;17.43;;;14.20;;
10154;SDS011;5118;48.570;7.916;2022-12-07T13:59:18;17.13;;;12.63;;
10154;SDS011;5118;48.570;7.916;2022-12-07T14:01:49;15.30;;;12.33;;
10154;SDS011;5118;48.570;7.916;2022-12-07T14:04:31;13.40;;;12.00;;
10154;SDS011;5118;48.570;7.916;2022-12-07T14:07:17;12.23;;;10.93;;
10154;SDS011;5118;48.570;7.916;2022-12-07T14:09:57;11.13;;;9.50;;
10154;SDS011;5118;48.570;7.916;2022-12-07T14:12:27;13.20;;;10.43;;
10154;SDS011;5118;48.570;7.916;2022-12-07T14:14:58;10.97;;;9.60;;
10154;SDS011;5118;48.570;7.916;2022-12-07T14:17:29;11.13;;;9.10;;
10154;SDS011;5118;48.570;7.916;2022-12-07T14:19:59;11.33;;;9.83;;
10154;SDS011;5118;48.570;7.916;2022-12-07T14:22:29;11.60;;;9.53;;
10154;SDS011;5118;48.570;7.916;2022-12-07T14:27:58;14.43;;;11.77;;
10154;SDS011;5118;48.570;7.916;2022-12-07T14:30:28;12.70;;;11.20;;
10154;SDS011;5118;48.570;7.916;2022-12-07T14:32:58;14.90;;;10.87;;
10154;SDS011;5118;48.570;7.916;2022-12-07T14:35:28;13.93;;;11.80;;
10154;SDS011;5118;48.570;7.916;2022-12-07T14:37:58;12.77;;;11.07;;
10154;SDS011;5118;48.570;7.916;2022-12-07T14:40:31;14.73;;;11.77;;
10154;SDS011;5118;48.570;7.916;2022-12-07T14:43:01;16.97;;;13.50;;
10154;SDS011;5118;48.570;7.916;2022-12-07T14:45:30;18.30;;;14.03;;
10154;SDS011;5118;48.570;7.916;2022-12-07T14:48:00;18.87;;;14.23;;
10154;SDS011;5118;48.570;7.916;2022-12-07T14:50:49;15.07;;;11.83;;
10154;SDS011;5118;48.570;7.916;2022-12-07T14:53:41;18.43;;;13.77;;
10154;SDS011;5118;48.570;7.916;2022-12-07T14:56:22;15.10;;;12.83;;
10154;SDS011;5118;48.570;7.916;2022-12-07T14:58:51;14.20;;;11.73;;
10154;SDS011;5118;48.570;7.916;2022-12-07T15:01:20;11.83;;;9.73;;
10154;SDS011;5118;48.570;7.916;2022-12-07T15:03:49;14.33;;;10.80;;
10154;SDS011;5118;48.570;7.916;2022-12-07T15:06:18;15.23;;;12.37;;
10154;SDS011;5118;48.570;7.916;2022-12-07T15:08:46;11.80;;;10.00;;
10154;SDS011;5118;48.570;7.916;2022-12-07T15:11:15;14.30;;;10.80;;
10154;SDS011;5118;48.570;7.916;2022-12-07T15:13:49;17.17;;;13.17;;
10154;SDS011;5118;48.570;7.916;2022-12-07T15:16:36;15.70;;;12.40;;
10154;SDS011;5118;48.570;7.916;2022-12-07T15:19:26;14.97;;;12.27;;
10154;SDS011;5118;48.570;7.916;2022-12-07T15:21:56;14.27;;;11.47;;
10154;SDS011;5118;48.570;7.916;2022-12-07T15:24:24;14.07;;;11.93;;
10154;SDS011;5118;48.570;7.916;2022-12-07T15:26:54;17.10;;;14.00;;
10154;SDS011;5118;48.570;7.916;2022-12-07T15:29:24;17.80;;;13.93;;
10154;SDS011;5118;48.570;7.916;2022-12-07T15:31:54;17.57;;;14.40;;
10154;SDS011;5118;48.570;7.916;2022-12-07T15:34:24;19.07;;;15.50;;
10154;SDS011;5118;48.570;7.916;2022-12-07T15:37:03;18.73;;;14.90;;
10154;SDS011;5118;48.570;7.916;2022-12-07T15:39:32;20.73;;;15.17;;